Kezdőlap
METAR-TAF:

METAR-TAF

Repülőterek :

Butterworth, Malajzia

földrajzi szélesség: 05-27-58N, földrajzi hosszúság: 100-23-28E, magasság: 2 m

Jelenlegi meteorológiai megfigyelések

A jelentés 38 perccel ezelõtt készült, 17:00 UTC
Különbözõ irányokból fújó szél 2 kt
Hőmérséklet 28°C
Páratartalom 89%
Légköri nyomás 1009 hPa
Látótávolság: 8000 m
Kevés felhő 2400 lábon

METAR: WMKB 051700Z VRB02KT 8000 FEW024 28/26 Q1009 NOSIG

Idő: 01:38 (17:38 UTC)

Előrejelzés

A jelentés 6 órával és 38 perccel ezelõtt készült, 11:00 UTC
Az előrejelzés 05-én 12 óra UTC és 06-én 12 óra UTC között érvényes
Nyugat-északnyugati szél 5 kt
Látótávolság 10 km, vagy több
Kevés felhő 2000 lábon
05-én 14 óra UTC és 05-én 16 óra UTC között fokozatosan kialakuló
Kelet-délkeleti szél 3 kt

TAF: WMKB 051100Z 0512/0612 29005KT 9999 FEW020 BECMG 0514/0516 11003KT

Meteorológiai megfigyelések és előrejelzések több, mint 4000 repülőtéren (METAR és TAF jelentéseket).

A térképen piros és sárga pontok jelzik az elérhető meteorológiai állomásokat.

Mozgassa az egeret a pont fölött, hogy megjelenjen az állomás neve.

Azután kattintson az időjárási megfigyelések és előrejelzések megtekintéséhez.

A térkép megváltoztatása: kattintson a fekete keresztel jelölt zöld gombra ráközelítéshez, a vonallal jelölt zöld gombra távolításhoz, vagy a zöld nyilakra a szomszédos térképek eléréséhez.


METAR-TAF: